createdAt,value
2018-05-02T00:02:05.704Z,70.10
2018-05-02T00:04:33.277Z,70.10
2018-05-02T00:07:00.976Z,70.20
2018-05-02T00:09:29.321Z,71.30
2018-05-02T00:11:56.983Z,71.30
2018-05-02T00:14:24.611Z,71.00
2018-05-02T00:16:52.202Z,70.90
2018-05-02T00:19:19.833Z,71.40
2018-05-02T00:21:47.423Z,71.60
2018-05-02T00:24:15.021Z,71.80
2018-05-02T00:26:43.390Z,72.80
2018-05-02T00:29:11.834Z,72.80
2018-05-02T00:31:39.415Z,72.80
2018-05-02T00:34:07.033Z,73.00
2018-05-02T00:36:34.655Z,72.40
2018-05-02T00:39:03.083Z,72.30
2018-05-02T00:41:30.702Z,72.30
2018-05-02T00:43:58.317Z,72.60
2018-05-02T00:46:25.941Z,72.60
2018-05-02T00:49:05.420Z,72.20
2018-05-02T00:51:33.035Z,72.20
2018-05-02T00:54:01.411Z,71.90
2018-05-02T00:56:29.797Z,72.50
2018-05-02T00:58:57.405Z,72.50
2018-05-02T01:01:25.034Z,72.70
2018-05-02T01:03:52.615Z,72.90
2018-05-02T01:06:20.271Z,73.20
2018-05-02T01:08:50.006Z,73.70
2018-05-02T01:11:21.192Z,74.10
2018-05-02T01:13:59.046Z,74.00
2018-05-02T01:16:29.726Z,74.40
2018-05-02T01:19:01.196Z,74.60
2018-05-02T01:21:32.837Z,74.40
2018-05-02T01:24:02.709Z,74.40
2018-05-02T01:26:33.764Z,74.50
2018-05-02T01:29:01.411Z,74.90
2018-05-02T01:31:29.009Z,74.90
2018-05-02T01:33:57.411Z,74.70
2018-05-02T01:36:25.009Z,74.40
2018-05-02T01:38:52.689Z,75.00
2018-05-02T01:41:21.085Z,75.40
2018-05-02T01:43:49.490Z,75.50
2018-05-02T01:46:17.880Z,75.40
2018-05-02T01:48:58.038Z,74.90
2018-05-02T01:51:25.750Z,74.40
2018-05-02T01:53:53.398Z,73.40
2018-05-02T01:56:20.994Z,74.00
2018-05-02T01:58:48.666Z,74.90
2018-05-02T02:01:16.313Z,75.50
2018-05-02T02:03:43.913Z,75.20
2018-05-02T02:06:11.494Z,75.60
2018-05-02T02:08:39.118Z,75.50
2018-05-02T02:11:06.710Z,75.40
2018-05-02T02:13:34.376Z,75.40
2018-05-02T02:16:01.996Z,74.70
2018-05-02T02:18:30.373Z,75.00
2018-05-02T02:20:57.977Z,74.30
2018-05-02T02:23:25.606Z,75.50
2018-05-02T02:25:53.981Z,74.70
2018-05-02T02:28:21.569Z,74.70
2018-05-02T02:30:49.170Z,74.60
2018-05-02T02:33:16.764Z,75.20
2018-05-02T02:35:44.418Z,75.60
2018-05-02T02:38:12.066Z,76.50
2018-05-02T02:40:39.686Z,76.30
2018-05-02T02:43:07.346Z,75.20
2018-05-02T02:45:34.931Z,75.30
2018-05-02T02:48:02.549Z,75.40
2018-05-02T02:50:30.897Z,74.90
2018-05-02T02:52:58.547Z,74.90
2018-05-02T02:55:26.141Z,75.60
2018-05-02T02:57:53.833Z,75.70
2018-05-02T03:00:21.491Z,75.50
2018-05-02T03:02:49.869Z,75.30
2018-05-02T03:05:18.310Z,75.40
2018-05-02T03:07:45.925Z,75.90
2018-05-02T03:10:13.519Z,75.00
2018-05-02T03:12:41.201Z,75.30
2018-05-02T03:15:08.848Z,75.00
2018-05-02T03:17:36.422Z,75.30
2018-05-02T03:20:04.056Z,75.30
2018-05-02T03:22:31.662Z,74.10
2018-05-02T03:25:00.074Z,75.40
2018-05-02T03:27:27.673Z,74.70
2018-05-02T03:29:55.302Z,75.20
2018-05-02T03:32:22.896Z,74.70
2018-05-02T03:34:50.532Z,74.00
2018-05-02T03:37:18.229Z,73.50
2018-05-02T03:39:45.849Z,74.00
2018-05-02T03:42:13.443Z,74.50
2018-05-02T03:44:41.101Z,74.80
2018-05-02T03:47:08.711Z,74.10
2018-05-02T03:49:37.114Z,74.70
2018-05-02T03:52:04.689Z,74.60
2018-05-02T03:54:32.310Z,74.50
2018-05-02T03:57:00.669Z,73.90
2018-05-02T03:59:40.334Z,73.90
2018-05-02T04:02:19.825Z,74.10
2018-05-02T04:05:00.280Z,73.00
2018-05-02T04:07:27.869Z,73.00
2018-05-02T04:09:55.481Z,72.40
2018-05-02T04:12:23.111Z,72.20
2018-05-02T04:14:50.720Z,72.40
2018-05-02T04:17:18.328Z,72.00
2018-05-02T04:19:45.973Z,72.00
2018-05-02T04:22:13.550Z,72.40
2018-05-02T04:24:41.979Z,72.40
2018-05-02T04:27:09.592Z,72.40
2018-05-02T04:29:37.212Z,72.00
2018-05-02T04:32:04.834Z,72.30
2018-05-02T04:34:32.416Z,71.20
2018-05-02T04:37:00.057Z,71.40
2018-05-02T04:39:27.720Z,71.90
2018-05-02T04:41:55.402Z,72.40
2018-05-02T04:44:23.745Z,69.80
2018-05-02T04:46:51.371Z,69.80
2018-05-02T04:49:18.945Z,70.10
2018-05-02T04:51:46.638Z,68.80
2018-05-02T04:54:14.254Z,69.40
2018-05-02T04:56:41.834Z,70.40
2018-05-02T04:59:09.455Z,70.30
2018-05-02T05:01:37.834Z,70.00
2018-05-02T05:04:06.249Z,69.10
2018-05-02T05:06:33.883Z,70.10
2018-05-02T05:09:01.563Z,68.70
2018-05-02T05:11:29.135Z,68.30
2018-05-02T05:13:56.757Z,68.80
2018-05-02T05:16:25.205Z,67.30
2018-05-02T05:18:52.841Z,67.30
2018-05-02T05:21:20.460Z,66.10
2018-05-02T05:23:48.821Z,66.30
2018-05-02T05:26:16.461Z,66.20
2018-05-02T05:28:44.112Z,66.90
2018-05-02T05:31:11.738Z,67.40
2018-05-02T05:33:40.077Z,65.70
2018-05-02T05:36:08.517Z,64.20
2018-05-02T05:38:36.185Z,64.20
2018-05-02T05:41:03.849Z,64.60
2018-05-02T05:43:31.529Z,64.10
2018-05-02T05:45:59.095Z,64.40
2018-05-02T05:48:26.828Z,65.30
2018-05-02T05:50:55.356Z,65.20
2018-05-02T05:53:23.006Z,65.20
2018-05-02T05:55:50.640Z,63.10
2018-05-02T05:58:18.221Z,63.10
2018-05-02T06:00:46.727Z,62.70
2018-05-02T06:03:14.249Z,62.50
2018-05-02T06:05:41.822Z,62.20
2018-05-02T06:08:09.432Z,61.90
2018-05-02T06:10:37.044Z,62.40
2018-05-02T06:13:05.278Z,62.90
2018-05-02T06:15:33.717Z,65.20
2018-05-02T06:18:01.350Z,65.10
2018-05-02T06:20:28.994Z,63.90
2018-05-02T06:22:56.619Z,62.20
2018-05-02T06:25:24.232Z,62.10
2018-05-02T06:27:51.858Z,62.10
2018-05-02T06:30:19.446Z,61.90
2018-05-02T06:32:47.065Z,62.60
2018-05-02T06:35:14.730Z,62.90
2018-05-02T06:37:42.374Z,63.60
2018-05-02T06:40:10.033Z,63.90
2018-05-02T06:42:37.613Z,62.70
2018-05-02T06:45:05.242Z,63.30
2018-05-02T06:47:33.645Z,64.20
2018-05-02T06:50:11.853Z,65.00
2018-05-02T06:52:40.822Z,66.30
2018-05-02T06:55:08.429Z,66.20
2018-05-02T06:57:36.290Z,66.60
2018-05-02T07:00:05.385Z,65.20
2018-05-02T07:02:33.078Z,65.20
2018-05-02T07:05:01.523Z,63.60
2018-05-02T07:07:29.110Z,63.60
2018-05-02T07:09:56.691Z,64.50
2018-05-02T07:12:24.349Z,63.30
2018-05-02T07:14:52.693Z,63.00
2018-05-02T07:17:23.527Z,62.90
2018-05-02T07:19:52.203Z,62.30
2018-05-02T07:22:20.596Z,62.50
2018-05-02T07:24:48.175Z,63.90
2018-05-02T07:27:15.804Z,63.70
2018-05-02T07:29:43.457Z,65.00
2018-05-02T07:32:11.057Z,64.10
2018-05-02T07:34:38.648Z,63.50
2018-05-02T07:37:06.301Z,63.00
2018-05-02T07:39:34.719Z,62.60
2018-05-02T07:42:02.377Z,62.50
2018-05-02T07:44:29.986Z,61.90
2018-05-02T07:46:57.960Z,62.10
2018-05-02T07:49:26.029Z,61.80
2018-05-02T07:51:54.704Z,61.80
2018-05-02T07:54:23.477Z,61.80
2018-05-02T07:56:52.454Z,60.60
2018-05-02T07:59:21.133Z,60.50
2018-05-02T08:01:48.869Z,61.30
2018-05-02T08:04:17.180Z,62.50
2018-05-02T08:06:45.030Z,61.90
2018-05-02T08:09:13.475Z,59.90
2018-05-02T08:11:41.152Z,59.80
2018-05-02T08:14:08.765Z,60.60
2018-05-02T08:16:36.394Z,60.20
2018-05-02T08:19:05.003Z,58.60
2018-05-02T08:21:32.605Z,58.60
2018-05-02T08:24:00.459Z,58.30
2018-05-02T08:26:28.297Z,57.50
2018-05-02T08:28:56.050Z,56.40
2018-05-02T08:31:29.234Z,55.10
2018-05-02T08:33:57.813Z,56.90
2018-05-02T08:36:25.650Z,54.60
2018-05-02T08:38:53.403Z,54.00
2018-05-02T08:41:27.279Z,54.40
2018-05-02T08:43:55.012Z,52.50
2018-05-02T08:46:23.393Z,54.70
2018-05-02T08:48:50.978Z,54.70
2018-05-02T08:51:18.686Z,54.50
2018-05-02T08:53:46.306Z,52.90
2018-05-02T08:56:13.982Z,53.20
2018-05-02T08:58:41.677Z,51.00
2018-05-02T09:01:09.277Z,49.40
2018-05-02T09:03:37.691Z,51.90
2018-05-02T09:06:17.266Z,52.80
2018-05-02T09:08:46.619Z,52.30
2018-05-02T09:11:14.305Z,52.20
2018-05-02T09:13:41.969Z,51.40
2018-05-02T09:16:09.551Z,51.90
2018-05-02T09:18:37.232Z,51.00
2018-05-02T09:21:04.819Z,52.00
2018-05-02T09:23:33.165Z,53.70
2018-05-02T09:26:01.754Z,53.10
2018-05-02T09:28:29.526Z,54.80
2018-05-02T09:30:57.690Z,51.80
2018-05-02T09:33:25.271Z,52.30
2018-05-02T09:35:53.745Z,53.90
2018-05-02T09:38:21.313Z,53.80
2018-05-02T09:40:49.927Z,52.10
2018-05-02T09:43:17.576Z,53.00
2018-05-02T09:45:45.990Z,54.00
2018-05-02T09:48:13.628Z,53.90
2018-05-02T09:50:41.279Z,55.20
2018-05-02T09:53:08.890Z,53.60
2018-05-02T09:55:36.505Z,54.70
2018-05-02T09:58:04.176Z,53.80
2018-05-02T10:00:31.914Z,56.50
2018-05-02T10:02:59.541Z,54.40
2018-05-02T10:05:27.166Z,51.40
2018-05-02T10:07:54.938Z,52.70
2018-05-02T10:10:22.571Z,53.60
2018-05-02T10:12:51.031Z,51.20
2018-05-02T10:15:18.606Z,51.20
2018-05-02T10:17:46.193Z,52.50
2018-05-02T10:20:14.059Z,51.80
2018-05-02T10:22:41.715Z,50.30
2018-05-02T10:25:10.402Z,50.50
2018-05-02T10:27:37.987Z,50.50
2018-05-02T10:30:05.625Z,47.50
2018-05-02T10:32:33.249Z,47.60
2018-05-02T10:35:00.836Z,50.00
2018-05-02T10:37:29.231Z,49.10
2018-05-02T10:39:57.601Z,47.60
2018-05-02T10:42:25.993Z,47.20
2018-05-02T10:44:53.610Z,47.20
2018-05-02T10:47:21.340Z,44.70
2018-05-02T10:49:48.975Z,46.20
2018-05-02T10:52:17.468Z,45.20
2018-05-02T10:54:45.243Z,45.20
2018-05-02T10:57:12.969Z,43.30
2018-05-02T10:59:40.592Z,42.60
2018-05-02T11:02:18.305Z,42.50
2018-05-02T11:04:45.953Z,45.20
2018-05-02T11:07:13.658Z,42.00
2018-05-02T11:09:41.298Z,43.90
2018-05-02T11:12:08.993Z,40.60
2018-05-02T11:14:37.666Z,42.90
2018-05-02T11:17:05.402Z,42.90
2018-05-02T11:19:33.271Z,41.80
2018-05-02T11:22:00.994Z,44.10
2018-05-02T11:24:28.806Z,43.20
2018-05-02T11:26:56.435Z,43.70
2018-05-02T11:29:24.205Z,44.50
2018-05-02T11:31:51.873Z,40.20
2018-05-02T11:34:19.594Z,42.70
2018-05-02T11:36:48.074Z,40.70
2018-05-02T11:39:16.102Z,40.70
2018-05-02T11:41:43.962Z,41.10
2018-05-02T11:44:11.693Z,41.00
2018-05-02T11:46:41.892Z,42.00
2018-05-02T11:49:09.582Z,40.30
2018-05-02T11:51:37.197Z,43.40
2018-05-02T11:54:04.921Z,39.80
2018-05-02T11:56:32.643Z,40.90
2018-05-02T11:59:00.516Z,41.60
2018-05-02T12:01:28.989Z,40.20
2018-05-02T12:03:57.485Z,41.50
2018-05-02T12:09:48.408Z,40.50
2018-05-02T12:12:16.897Z,40.30
2018-05-02T12:14:44.579Z,40.20
2018-05-02T12:17:12.322Z,40.80
2018-05-02T12:19:40.033Z,42.20
2018-05-02T12:22:07.836Z,38.90
2018-05-02T12:24:35.699Z,41.10
2018-05-02T12:27:03.999Z,39.30
2018-05-02T12:29:32.515Z,41.30
2018-05-02T12:32:00.351Z,40.70
2018-05-02T12:34:27.953Z,36.60
2018-05-02T12:36:55.727Z,37.40
2018-05-02T12:39:23.462Z,37.70
2018-05-02T12:41:51.965Z,37.40
2018-05-02T12:44:19.882Z,37.40
2018-05-02T12:46:47.621Z,38.50
2018-05-02T12:49:15.362Z,37.40
2018-05-02T12:51:42.982Z,36.00
2018-05-02T12:54:10.672Z,36.40
2018-05-02T12:56:39.172Z,37.60
2018-05-02T12:59:06.917Z,37.50
2018-05-02T13:01:35.312Z,36.90
2018-05-02T13:04:02.983Z,36.80
2018-05-02T13:06:30.597Z,37.60
2018-05-02T13:08:59.173Z,36.80
2018-05-02T13:11:27.326Z,36.80
2018-05-02T13:13:55.397Z,36.30
2018-05-02T13:16:23.263Z,38.70
2018-05-02T13:18:51.274Z,38.90
2018-05-02T13:21:19.005Z,38.50
2018-05-02T13:23:46.640Z,37.90
2018-05-02T13:26:14.349Z,37.00
2018-05-02T13:28:42.030Z,37.90
2018-05-02T13:31:09.752Z,36.00
2018-05-02T13:33:37.383Z,38.40
2018-05-02T13:36:04.956Z,39.20
2018-05-02T13:38:32.623Z,38.80
2018-05-02T13:41:00.262Z,38.70
2018-05-02T13:43:28.911Z,36.80
2018-05-02T13:45:57.344Z,36.80
2018-05-02T13:48:24.953Z,36.80
2018-05-02T13:50:52.527Z,36.20
2018-05-02T13:53:20.205Z,38.00
2018-05-02T13:55:48.140Z,37.60
2018-05-02T13:58:16.821Z,37.50
2018-05-02T14:00:45.001Z,37.40
2018-05-02T14:03:12.852Z,37.90
2018-05-02T14:05:40.610Z,38.40
2018-05-02T14:08:08.491Z,38.90
2018-05-02T14:10:36.376Z,39.50
2018-05-02T14:13:09.378Z,38.70
2018-05-02T14:15:38.019Z,39.90
2018-05-02T14:18:05.836Z,40.50
2018-05-02T14:20:33.549Z,39.90
2018-05-02T14:23:01.131Z,41.50
2018-05-02T14:25:28.761Z,40.70
2018-05-02T14:27:56.398Z,41.10
2018-05-02T14:30:24.022Z,41.80
2018-05-02T14:32:51.666Z,39.50
2018-05-02T14:35:19.555Z,40.30
2018-05-02T14:37:47.209Z,41.80
2018-05-02T14:40:14.804Z,40.80
2018-05-02T14:42:42.453Z,41.80
2018-05-02T14:45:10.076Z,40.40
2018-05-02T14:47:37.731Z,43.30
2018-05-02T14:50:05.381Z,40.70
2018-05-02T14:52:33.794Z,39.90
2018-05-02T14:55:01.445Z,39.90
2018-05-02T14:57:29.076Z,39.90
2018-05-02T14:59:57.513Z,40.40
2018-05-02T15:02:25.106Z,40.40
2018-05-02T15:04:52.737Z,41.40
2018-05-02T15:07:20.370Z,41.50
2018-05-02T15:09:48.045Z,42.20
2018-05-02T15:12:15.694Z,40.50
2018-05-02T15:14:44.092Z,40.70
2018-05-02T15:17:11.702Z,40.70
2018-05-02T15:19:40.102Z,42.90
2018-05-02T15:22:08.493Z,42.40
2018-05-02T15:24:36.124Z,42.90
2018-05-02T15:27:04.513Z,41.40
2018-05-02T15:29:32.866Z,42.00
2018-05-02T15:32:00.500Z,42.00
2018-05-02T15:34:28.126Z,43.50
2018-05-02T15:36:56.631Z,42.70
2018-05-02T15:39:24.690Z,42.50
2018-05-02T15:41:52.481Z,42.50
2018-05-02T15:44:20.150Z,43.80
2018-05-02T15:46:47.836Z,44.20
2018-05-02T15:49:15.899Z,44.00
2018-05-02T15:51:43.544Z,43.20
2018-05-02T15:54:11.211Z,43.20
2018-05-02T15:56:39.009Z,43.60
2018-05-02T15:59:06.758Z,43.50
2018-05-02T16:01:34.635Z,43.50
2018-05-02T16:04:02.436Z,44.30
2018-05-02T16:06:30.282Z,44.20
2018-05-02T16:08:57.968Z,44.50
2018-05-02T16:11:25.676Z,44.50
2018-05-02T16:13:53.672Z,44.90
2018-05-02T16:16:22.187Z,45.10
2018-05-02T16:18:49.858Z,44.40
2018-05-02T16:21:17.537Z,45.20
2018-05-02T16:23:45.129Z,45.10
2018-05-02T16:26:12.770Z,45.00
2018-05-02T16:28:40.561Z,45.50
2018-05-02T16:31:08.240Z,45.50
2018-05-02T16:33:35.832Z,45.40
2018-05-02T16:36:04.209Z,45.50
2018-05-02T16:38:32.570Z,45.60
2018-05-02T16:41:00.965Z,45.90
2018-05-02T16:43:29.314Z,45.80
2018-05-02T16:45:56.918Z,45.80
2018-05-02T16:48:26.478Z,45.50
2018-05-02T16:50:54.073Z,45.60
2018-05-02T16:53:22.433Z,45.50
2018-05-02T16:55:50.093Z,45.50
2018-05-02T16:58:17.675Z,46.00
2018-05-02T17:00:46.078Z,46.50
2018-05-02T17:03:13.707Z,46.30
2018-05-02T17:05:41.335Z,46.10
2018-05-02T17:08:08.919Z,46.30
2018-05-02T17:10:36.499Z,46.50
2018-05-02T17:13:04.905Z,47.20
2018-05-02T17:15:32.496Z,47.20
2018-05-02T17:18:00.145Z,46.90
2018-05-02T17:20:27.737Z,46.90
2018-05-02T17:22:55.386Z,47.00
2018-05-02T17:25:22.974Z,48.60
2018-05-02T17:27:51.385Z,47.40
2018-05-02T17:30:19.042Z,47.50
2018-05-02T17:32:47.530Z,47.60
2018-05-02T17:35:15.138Z,47.60
2018-05-02T17:37:42.787Z,47.40
2018-05-02T17:40:10.406Z,47.50
2018-05-02T17:42:38.761Z,47.40
2018-05-02T17:45:06.397Z,47.40
2018-05-02T17:47:33.994Z,48.30
2018-05-02T17:50:02.444Z,48.40
2018-05-02T17:52:30.026Z,48.00
2018-05-02T17:54:57.601Z,48.30
2018-05-02T17:57:25.272Z,48.80
2018-05-02T17:59:53.653Z,48.50
2018-05-02T18:02:22.053Z,47.40
2018-05-02T18:04:49.669Z,47.40
2018-05-02T18:07:17.259Z,48.70
2018-05-02T18:09:45.631Z,49.00
2018-05-02T18:12:14.030Z,48.30
2018-05-02T18:14:42.412Z,48.50
2018-05-02T18:17:10.745Z,48.50
2018-05-02T18:19:39.839Z,48.90
2018-05-02T18:22:07.449Z,48.90
2018-05-02T18:24:35.051Z,48.90
2018-05-02T18:27:02.670Z,50.10
2018-05-02T18:29:30.259Z,50.20
2018-05-02T18:31:57.986Z,49.40
2018-05-02T18:34:26.352Z,49.10
2018-05-02T18:36:53.921Z,49.00
2018-05-02T18:39:22.301Z,50.20
2018-05-02T18:41:50.763Z,50.80
2018-05-02T18:44:18.291Z,50.80
2018-05-02T18:46:45.935Z,50.40
2018-05-02T18:49:13.563Z,50.10
2018-05-02T18:51:41.134Z,50.90
2018-05-02T18:54:09.524Z,51.70
2018-05-02T18:56:37.858Z,52.80
2018-05-02T18:59:05.483Z,52.80
2018-05-02T19:01:33.122Z,54.50
2018-05-02T19:04:00.755Z,55.80
2018-05-02T19:06:28.361Z,56.60
2018-05-02T19:08:55.925Z,57.40
2018-05-02T19:11:23.589Z,58.20
2018-05-02T19:13:56.734Z,58.80
2018-05-02T19:16:24.367Z,59.40
2018-05-02T19:18:57.609Z,59.40
2018-05-02T19:21:25.283Z,59.70
2018-05-02T19:23:52.943Z,59.20
2018-05-02T19:26:26.228Z,60.00
2018-05-02T19:28:53.872Z,60.80
2018-05-02T19:31:27.043Z,60.00
2018-05-02T19:33:54.653Z,59.80
2018-05-02T19:36:23.077Z,61.30
2018-05-02T19:38:50.709Z,61.30
2018-05-02T19:41:24.121Z,61.30
2018-05-02T19:43:57.365Z,61.00
2018-05-02T19:46:24.937Z,61.30
2018-05-02T19:48:52.555Z,60.70
2018-05-02T19:51:25.721Z,60.20
2018-05-02T19:53:53.379Z,59.80
2018-05-02T19:56:21.018Z,58.90
2018-05-02T19:58:49.374Z,60.90
2018-05-02T20:01:22.744Z,60.90
2018-05-02T20:03:53.276Z,58.90
2018-05-02T20:06:21.145Z,57.00
2018-05-02T20:08:54.354Z,56.70
2018-05-02T20:11:27.717Z,56.40
2018-05-02T20:14:00.883Z,57.20
2018-05-02T20:16:29.304Z,56.90
2018-05-02T20:18:56.895Z,56.90
2018-05-02T20:21:24.485Z,56.80
2018-05-02T20:23:52.882Z,54.90
2018-05-02T20:26:20.481Z,54.90
2018-05-02T20:28:48.110Z,53.70
2018-05-02T20:31:15.763Z,54.90
2018-05-02T20:33:43.437Z,54.80
2018-05-02T20:36:11.025Z,55.20
2018-05-02T20:38:38.599Z,56.30
2018-05-02T20:41:06.258Z,55.50
2018-05-02T20:43:33.890Z,55.50
2018-05-02T20:46:01.538Z,55.00
2018-05-02T20:48:29.158Z,55.30
2018-05-02T20:50:56.781Z,56.60
2018-05-02T20:53:24.413Z,56.50
2018-05-02T20:55:52.793Z,55.30
2018-05-02T20:58:21.154Z,55.00
2018-05-02T21:00:48.746Z,55.00
2018-05-02T21:03:17.141Z,56.30
2018-05-02T21:05:44.724Z,56.30
2018-05-02T21:08:12.387Z,55.00
2018-05-02T21:10:39.990Z,55.50
2018-05-02T21:13:07.609Z,56.20
2018-05-02T21:15:35.182Z,56.80
2018-05-02T21:18:02.805Z,57.30
2018-05-02T21:20:30.395Z,57.70
2018-05-02T21:22:58.766Z,58.90
2018-05-02T21:25:26.398Z,58.90
2018-05-02T21:27:54.824Z,59.50
2018-05-02T21:30:22.404Z,59.50
2018-05-02T21:32:50.042Z,60.00
2018-05-02T21:35:17.645Z,60.20
2018-05-02T21:37:46.055Z,61.40
2018-05-02T21:40:13.652Z,61.40
2018-05-02T21:42:41.268Z,59.80
2018-05-02T21:45:09.641Z,61.20
2018-05-02T21:47:38.058Z,62.10
2018-05-02T21:50:06.439Z,63.20
2018-05-02T21:52:34.021Z,63.10
2018-05-02T21:55:01.591Z,64.10
2018-05-02T21:57:29.217Z,64.80
2018-05-02T21:59:56.841Z,65.40
2018-05-02T22:02:25.201Z,66.60
2018-05-02T22:04:52.792Z,66.60
2018-05-02T22:07:20.431Z,66.90
2018-05-02T22:09:48.835Z,67.70
2018-05-02T22:12:16.434Z,67.50
2018-05-02T22:14:44.069Z,68.30
2018-05-02T22:17:11.645Z,68.50
2018-05-02T22:19:39.267Z,68.50
2018-05-02T22:22:06.845Z,68.20
2018-05-02T22:24:35.262Z,69.10
2018-05-02T22:27:02.852Z,69.20
2018-05-02T22:29:30.524Z,69.60
2018-05-02T22:31:58.180Z,69.80
2018-05-02T22:34:25.779Z,69.90
2018-05-02T22:36:53.377Z,70.00
2018-05-02T22:39:21.018Z,68.50
2018-05-02T22:41:48.657Z,68.40
2018-05-02T22:44:17.006Z,69.20
2018-05-02T22:46:44.621Z,69.20
2018-05-02T22:49:12.213Z,67.70
2018-05-02T22:51:39.840Z,68.90
2018-05-02T22:54:07.452Z,69.50
2018-05-02T22:56:35.094Z,70.20
2018-05-02T22:59:02.689Z,70.70
2018-05-02T23:01:30.264Z,71.00
2018-05-02T23:03:58.661Z,70.90
2018-05-02T23:06:26.302Z,70.90
2018-05-02T23:08:54.657Z,71.60
2018-05-02T23:11:22.314Z,71.50
2018-05-02T23:13:49.895Z,71.30
2018-05-02T23:16:17.516Z,70.60
2018-05-02T23:18:45.119Z,70.90
2018-05-02T23:21:12.829Z,71.00
2018-05-02T23:23:40.398Z,71.70
2018-05-02T23:26:08.000Z,71.50
2018-05-02T23:28:35.609Z,71.50
2018-05-02T23:31:03.215Z,71.90
2018-05-02T23:33:32.670Z,73.30
2018-05-02T23:36:00.293Z,73.30
2018-05-02T23:38:27.916Z,73.50
2018-05-02T23:40:55.537Z,73.60
2018-05-02T23:43:23.181Z,73.80
2018-05-02T23:45:51.586Z,73.20
2018-05-02T23:48:20.002Z,73.50
2018-05-02T23:50:47.624Z,73.50
2018-05-02T23:53:15.229Z,73.40
2018-05-02T23:55:42.837Z,73.50
2018-05-02T23:58:11.239Z,73.60
